This is the latest recevied weather packets stored in our database for station/object SQ6RR-12. If no packets are shown the sender has not sent any weather packets the latest 10 day(s).
| Time | Temp. | Humidity | Pressure | Rain* | Wind** | Luminosity | Snow |
|---|---|---|---|---|---|---|---|
| 1777806255 | 25° C | 28% | 1018.2 hPa | 0 mm | - | - | - |
| 1777805982 | 25° C | 27% | 1018.2 hPa | 0 mm | - | - | - |
| 1777805692 | 24.44° C | 30% | 1018.2 hPa | 0 mm | - | - | - |
| 1777805417 | 24.44° C | 28% | 1018.3 hPa | 0 mm | - | - | - |
| 1777805152 | 23.89° C | 30% | 1018.3 hPa | 0 mm | - | - | - |
| 1777804892 | 24.44° C | 29% | 1018.4 hPa | 0 mm | - | - | - |
| 1777804620 | 24.44° C | 30% | 1018.4 hPa | 0 mm | - | - | - |
| 1777804346 | 24.44° C | 30% | 1018.4 hPa | 0 mm | - | - | - |
| 1777804068 | 24.44° C | 30% | 1018.4 hPa | 0 mm | - | - | - |
| 1777803786 | 24.44° C | 29% | 1018.5 hPa | 0 mm | - | - | - |
| 1777803512 | 23.89° C | 31% | 1018.5 hPa | 0 mm | - | - | - |
| 1777803242 | 23.89° C | 30% | 1018.5 hPa | 0 mm | - | - | - |
| 1777802964 | 23.89° C | 29% | 1018.6 hPa | 0 mm | - | - | - |
| 1777802680 | 23.33° C | 32% | 1018.6 hPa | 0 mm | - | - | - |
| 1777802415 | 23.89° C | 29% | 1018.6 hPa | 0 mm | - | - | - |
| 1777802149 | 23.89° C | 29% | 1018.7 hPa | 0 mm | - | - | - |
| 1777801872 | 23.89° C | 29% | 1018.7 hPa | 0 mm | - | - | - |
| 1777801602 | 23.89° C | 29% | 1018.7 hPa | 0 mm | - | - | - |
| 1777801327 | 23.89° C | 28% | 1018.8 hPa | 0 mm | - | - | - |
| 1777801067 | 23.89° C | 29% | 1018.8 hPa | 0 mm | - | - | - |
| 1777800797 | 23.89° C | 29% | 1018.9 hPa | 0 mm | - | - | - |
| 1777800532 | 23.33° C | 30% | 1018.8 hPa | 0 mm | - | - | - |
| 1777800272 | 23.33° C | 29% | 1019 hPa | 0 mm | - | - | - |
| 1777800012 | 23.89° C | 28% | 1019 hPa | 0 mm | - | - | - |
| 1777799759 | 23.89° C | 27% | 1019.1 hPa | 0 mm | - | - | - |
* Rain latest hour (hover to see other rain measurements)
** Current wind speed in m/s (hover to see current wind gust speed)